sensor_id;sensor_type;location;lat;lon;timestamp;P1;durP1;ratioP1;P2;durP2;ratioP2
21517;SDS011;61765;45.794;24.150;2022-12-07T00:00:33;26.20;;;15.48;;
21517;SDS011;61765;45.794;24.150;2022-12-07T00:08:41;26.95;;;14.93;;
21517;SDS011;61765;45.794;24.150;2022-12-07T00:16:48;26.92;;;15.07;;
21517;SDS011;61765;45.794;24.150;2022-12-07T00:24:57;25.30;;;14.65;;
21517;SDS011;61765;45.794;24.150;2022-12-07T00:33:02;26.35;;;14.38;;
21517;SDS011;61765;45.794;24.150;2022-12-07T00:41:11;27.05;;;14.80;;
21517;SDS011;61765;45.794;24.150;2022-12-07T00:49:18;23.27;;;13.70;;
21517;SDS011;61765;45.794;24.150;2022-12-07T00:57:26;21.85;;;14.00;;
21517;SDS011;61765;45.794;24.150;2022-12-07T01:05:32;16.60;;;9.73;;
21517;SDS011;61765;45.794;24.150;2022-12-07T01:13:41;13.55;;;7.43;;
21517;SDS011;61765;45.794;24.150;2022-12-07T01:21:47;13.35;;;8.07;;
21517;SDS011;61765;45.794;24.150;2022-12-07T01:29:55;12.88;;;8.30;;
21517;SDS011;61765;45.794;24.150;2022-12-07T01:38:01;13.50;;;7.97;;
21517;SDS011;61765;45.794;24.150;2022-12-07T01:46:09;13.43;;;8.05;;
21517;SDS011;61765;45.794;24.150;2022-12-07T01:54:14;15.75;;;8.77;;
21517;SDS011;61765;45.794;24.150;2022-12-07T02:02:25;11.63;;;7.78;;
21517;SDS011;61765;45.794;24.150;2022-12-07T02:10:33;12.77;;;7.60;;
21517;SDS011;61765;45.794;24.150;2022-12-07T02:18:46;13.48;;;7.82;;
21517;SDS011;61765;45.794;24.150;2022-12-07T02:27:17;12.95;;;8.00;;
21517;SDS011;61765;45.794;24.150;2022-12-07T02:35:44;11.95;;;7.72;;
21517;SDS011;61765;45.794;24.150;2022-12-07T02:43:53;16.50;;;9.25;;
21517;SDS011;61765;45.794;24.150;2022-12-07T02:52:03;15.13;;;8.43;;
21517;SDS011;61765;45.794;24.150;2022-12-07T03:00:12;16.88;;;10.05;;
21517;SDS011;61765;45.794;24.150;2022-12-07T03:08:24;14.68;;;9.05;;
21517;SDS011;61765;45.794;24.150;2022-12-07T03:16:37;18.48;;;11.10;;
21517;SDS011;61765;45.794;24.150;2022-12-07T03:24:51;17.75;;;10.93;;
21517;SDS011;61765;45.794;24.150;2022-12-07T03:33:00;20.00;;;12.27;;
21517;SDS011;61765;45.794;24.150;2022-12-07T03:41:14;16.08;;;10.57;;
21517;SDS011;61765;45.794;24.150;2022-12-07T03:49:23;15.35;;;10.75;;
21517;SDS011;61765;45.794;24.150;2022-12-07T03:57:35;17.50;;;10.95;;
21517;SDS011;61765;45.794;24.150;2022-12-07T04:05:43;16.88;;;9.90;;
21517;SDS011;61765;45.794;24.150;2022-12-07T04:13:51;16.40;;;10.63;;
21517;SDS011;61765;45.794;24.150;2022-12-07T04:22:09;16.90;;;12.27;;
21517;SDS011;61765;45.794;24.150;2022-12-07T04:30:17;18.33;;;11.30;;
21517;SDS011;61765;45.794;24.150;2022-12-07T04:38:23;19.45;;;11.73;;
21517;SDS011;61765;45.794;24.150;2022-12-07T04:46:31;20.02;;;12.27;;
21517;SDS011;61765;45.794;24.150;2022-12-07T04:54:37;19.52;;;11.60;;
21517;SDS011;61765;45.794;24.150;2022-12-07T05:02:45;22.65;;;13.50;;
21517;SDS011;61765;45.794;24.150;2022-12-07T05:10:50;20.70;;;13.25;;
21517;SDS011;61765;45.794;24.150;2022-12-07T05:18:58;21.85;;;14.32;;
21517;SDS011;61765;45.794;24.150;2022-12-07T05:27:04;23.60;;;14.45;;
21517;SDS011;61765;45.794;24.150;2022-12-07T05:35:14;26.85;;;15.73;;
21517;SDS011;61765;45.794;24.150;2022-12-07T05:43:31;32.60;;;18.63;;
21517;SDS011;61765;45.794;24.150;2022-12-07T05:51:39;35.45;;;19.63;;
21517;SDS011;61765;45.794;24.150;2022-12-07T05:59:45;28.83;;;15.23;;
21517;SDS011;61765;45.794;24.150;2022-12-07T06:07:53;37.85;;;19.48;;
21517;SDS011;61765;45.794;24.150;2022-12-07T06:16:06;31.67;;;18.70;;
21517;SDS011;61765;45.794;24.150;2022-12-07T06:24:14;36.72;;;20.85;;
21517;SDS011;61765;45.794;24.150;2022-12-07T06:32:20;29.85;;;18.63;;
21517;SDS011;61765;45.794;24.150;2022-12-07T06:40:28;34.50;;;19.85;;
21517;SDS011;61765;45.794;24.150;2022-12-07T06:48:34;36.95;;;21.00;;
21517;SDS011;61765;45.794;24.150;2022-12-07T06:56:42;38.25;;;22.25;;
21517;SDS011;61765;45.794;24.150;2022-12-07T07:04:50;37.08;;;21.02;;
21517;SDS011;61765;45.794;24.150;2022-12-07T07:12:58;44.70;;;25.58;;
21517;SDS011;61765;45.794;24.150;2022-12-07T07:21:04;54.25;;;32.10;;
21517;SDS011;61765;45.794;24.150;2022-12-07T07:29:12;55.83;;;30.85;;
21517;SDS011;61765;45.794;24.150;2022-12-07T07:37:18;59.10;;;30.75;;
21517;SDS011;61765;45.794;24.150;2022-12-07T07:45:26;32.95;;;18.20;;
21517;SDS011;61765;45.794;24.150;2022-12-07T07:53:32;40.78;;;21.58;;
21517;SDS011;61765;45.794;24.150;2022-12-07T08:01:40;35.30;;;19.80;;
21517;SDS011;61765;45.794;24.150;2022-12-07T08:09:46;28.65;;;19.02;;
21517;SDS011;61765;45.794;24.150;2022-12-07T08:17:54;26.67;;;18.23;;
21517;SDS011;61765;45.794;24.150;2022-12-07T08:26:00;34.25;;;22.40;;
21517;SDS011;61765;45.794;24.150;2022-12-07T08:34:09;37.78;;;24.20;;
21517;SDS011;61765;45.794;24.150;2022-12-07T08:42:15;34.35;;;20.83;;
21517;SDS011;61765;45.794;24.150;2022-12-07T08:50:27;29.50;;;17.80;;
21517;SDS011;61765;45.794;24.150;2022-12-07T08:58:36;27.73;;;16.80;;
21517;SDS011;61765;45.794;24.150;2022-12-07T09:06:45;35.28;;;20.75;;
21517;SDS011;61765;45.794;24.150;2022-12-07T09:14:51;64.25;;;37.42;;
21517;SDS011;61765;45.794;24.150;2022-12-07T09:22:59;46.38;;;29.15;;
21517;SDS011;61765;45.794;24.150;2022-12-07T09:31:04;45.22;;;26.17;;
21517;SDS011;61765;45.794;24.150;2022-12-07T09:39:31;41.97;;;25.48;;
21517;SDS011;61765;45.794;24.150;2022-12-07T09:47:36;32.25;;;21.10;;
21517;SDS011;61765;45.794;24.150;2022-12-07T09:55:46;24.88;;;15.85;;
21517;SDS011;61765;45.794;24.150;2022-12-07T10:04:13;28.10;;;18.83;;
21517;SDS011;61765;45.794;24.150;2022-12-07T10:12:23;23.70;;;15.55;;
21517;SDS011;61765;45.794;24.150;2022-12-07T10:29:36;31.92;;;17.83;;
21517;SDS011;61765;45.794;24.150;2022-12-07T10:37:44;21.10;;;13.43;;
21517;SDS011;61765;45.794;24.150;2022-12-07T11:02:50;11.73;;;7.88;;
21517;SDS011;61765;45.794;24.150;2022-12-07T11:11:21;11.95;;;7.57;;
21517;SDS011;61765;45.794;24.150;2022-12-07T11:19:43;10.85;;;7.68;;
21517;SDS011;61765;45.794;24.150;2022-12-07T11:37:18;39.03;;;20.52;;
21517;SDS011;61765;45.794;24.150;2022-12-07T11:45:54;15.23;;;8.60;;
21517;SDS011;61765;45.794;24.150;2022-12-07T11:54:54;15.63;;;9.70;;
21517;SDS011;61765;45.794;24.150;2022-12-07T12:03:01;14.45;;;9.20;;
21517;SDS011;61765;45.794;24.150;2022-12-07T12:19:30;20.03;;;8.80;;
21517;SDS011;61765;45.794;24.150;2022-12-07T12:28:15;11.65;;;7.85;;
21517;SDS011;61765;45.794;24.150;2022-12-07T12:36:28;19.35;;;12.00;;
21517;SDS011;61765;45.794;24.150;2022-12-07T12:53:33;18.65;;;11.13;;
21517;SDS011;61765;45.794;24.150;2022-12-07T13:01:44;16.35;;;9.88;;
21517;SDS011;61765;45.794;24.150;2022-12-07T13:19:57;19.13;;;11.00;;
21517;SDS011;61765;45.794;24.150;2022-12-07T13:28:09;21.23;;;10.63;;
21517;SDS011;61765;45.794;24.150;2022-12-07T13:36:26;18.27;;;10.45;;
21517;SDS011;61765;45.794;24.150;2022-12-07T13:44:39;20.73;;;10.57;;
21517;SDS011;61765;45.794;24.150;2022-12-07T13:52:48;19.17;;;10.13;;
21517;SDS011;61765;45.794;24.150;2022-12-07T14:00:53;18.00;;;10.77;;
21517;SDS011;61765;45.794;24.150;2022-12-07T14:09:14;18.15;;;11.73;;
21517;SDS011;61765;45.794;24.150;2022-12-07T14:17:24;17.70;;;11.10;;
21517;SDS011;61765;45.794;24.150;2022-12-07T14:25:44;19.80;;;11.68;;
21517;SDS011;61765;45.794;24.150;2022-12-07T14:33:52;18.55;;;11.80;;
21517;SDS011;61765;45.794;24.150;2022-12-07T14:42:00;19.95;;;12.50;;
21517;SDS011;61765;45.794;24.150;2022-12-07T14:50:07;20.80;;;12.30;;
21517;SDS011;61765;45.794;24.150;2022-12-07T14:58:18;27.65;;;17.45;;
21517;SDS011;61765;45.794;24.150;2022-12-07T15:06:25;28.73;;;16.55;;
21517;SDS011;61765;45.794;24.150;2022-12-07T15:14:33;23.05;;;13.65;;
21517;SDS011;61765;45.794;24.150;2022-12-07T15:22:39;17.17;;;10.93;;
21517;SDS011;61765;45.794;24.150;2022-12-07T15:30:47;20.92;;;13.77;;
21517;SDS011;61765;45.794;24.150;2022-12-07T15:39:02;22.33;;;14.98;;
21517;SDS011;61765;45.794;24.150;2022-12-07T15:47:30;22.50;;;15.00;;
21517;SDS011;61765;45.794;24.150;2022-12-07T15:56:05;25.17;;;15.45;;
21517;SDS011;61765;45.794;24.150;2022-12-07T16:04:27;25.38;;;14.98;;
21517;SDS011;61765;45.794;24.150;2022-12-07T16:12:32;22.30;;;14.55;;
21517;SDS011;61765;45.794;24.150;2022-12-07T16:29:16;23.80;;;15.27;;
21517;SDS011;61765;45.794;24.150;2022-12-07T16:37:23;22.83;;;14.88;;
21517;SDS011;61765;45.794;24.150;2022-12-07T16:45:32;20.08;;;13.65;;
21517;SDS011;61765;45.794;24.150;2022-12-07T16:53:38;28.30;;;14.45;;
21517;SDS011;61765;45.794;24.150;2022-12-07T17:01:47;24.45;;;14.18;;
21517;SDS011;61765;45.794;24.150;2022-12-07T17:09:53;32.28;;;18.02;;
21517;SDS011;61765;45.794;24.150;2022-12-07T17:18:03;31.63;;;18.35;;
21517;SDS011;61765;45.794;24.150;2022-12-07T17:26:09;32.80;;;19.60;;
21517;SDS011;61765;45.794;24.150;2022-12-07T17:34:19;37.53;;;21.95;;
21517;SDS011;61765;45.794;24.150;2022-12-07T17:42:25;33.92;;;18.08;;
21517;SDS011;61765;45.794;24.150;2022-12-07T17:50:43;28.10;;;17.38;;
21517;SDS011;61765;45.794;24.150;2022-12-07T17:59:02;26.55;;;15.43;;
21517;SDS011;61765;45.794;24.150;2022-12-07T18:07:10;29.67;;;18.45;;
21517;SDS011;61765;45.794;24.150;2022-12-07T18:15:19;39.08;;;22.75;;
21517;SDS011;61765;45.794;24.150;2022-12-07T18:23:27;55.88;;;28.80;;
21517;SDS011;61765;45.794;24.150;2022-12-07T18:31:36;45.85;;;25.05;;
21517;SDS011;61765;45.794;24.150;2022-12-07T18:39:44;38.22;;;23.10;;
21517;SDS011;61765;45.794;24.150;2022-12-07T18:47:52;43.10;;;23.27;;
21517;SDS011;61765;45.794;24.150;2022-12-07T18:56:05;38.67;;;21.88;;
21517;SDS011;61765;45.794;24.150;2022-12-07T19:04:15;32.78;;;19.95;;
21517;SDS011;61765;45.794;24.150;2022-12-07T19:12:25;36.78;;;21.45;;
21517;SDS011;61765;45.794;24.150;2022-12-07T19:20:34;36.38;;;21.13;;
21517;SDS011;61765;45.794;24.150;2022-12-07T19:28:43;41.95;;;23.40;;
21517;SDS011;61765;45.794;24.150;2022-12-07T19:36:50;43.00;;;25.90;;
21517;SDS011;61765;45.794;24.150;2022-12-07T19:44:59;47.80;;;26.63;;
21517;SDS011;61765;45.794;24.150;2022-12-07T19:53:05;43.50;;;25.80;;
21517;SDS011;61765;45.794;24.150;2022-12-07T20:01:14;38.20;;;23.92;;
21517;SDS011;61765;45.794;24.150;2022-12-07T20:09:20;35.85;;;23.20;;
21517;SDS011;61765;45.794;24.150;2022-12-07T20:17:28;37.17;;;22.02;;
21517;SDS011;61765;45.794;24.150;2022-12-07T20:25:34;47.25;;;26.13;;
21517;SDS011;61765;45.794;24.150;2022-12-07T20:33:43;41.78;;;24.70;;
21517;SDS011;61765;45.794;24.150;2022-12-07T20:41:49;38.58;;;21.00;;
21517;SDS011;61765;45.794;24.150;2022-12-07T20:50:10;38.70;;;22.92;;
21517;SDS011;61765;45.794;24.150;2022-12-07T20:58:16;39.15;;;23.75;;
21517;SDS011;61765;45.794;24.150;2022-12-07T21:06:24;44.00;;;26.05;;
21517;SDS011;61765;45.794;24.150;2022-12-07T21:14:30;46.35;;;27.38;;
21517;SDS011;61765;45.794;24.150;2022-12-07T21:22:38;48.47;;;28.67;;
21517;SDS011;61765;45.794;24.150;2022-12-07T21:30:43;44.35;;;27.25;;
21517;SDS011;61765;45.794;24.150;2022-12-07T21:39:14;50.67;;;29.27;;
21517;SDS011;61765;45.794;24.150;2022-12-07T21:47:22;44.10;;;28.85;;
21517;SDS011;61765;45.794;24.150;2022-12-07T21:55:30;46.13;;;28.23;;
21517;SDS011;61765;45.794;24.150;2022-12-07T22:03:36;47.13;;;28.33;;
21517;SDS011;61765;45.794;24.150;2022-12-07T22:11:45;42.10;;;26.70;;
21517;SDS011;61765;45.794;24.150;2022-12-07T22:19:50;42.80;;;25.33;;
21517;SDS011;61765;45.794;24.150;2022-12-07T22:27:58;44.72;;;26.67;;
21517;SDS011;61765;45.794;24.150;2022-12-07T22:36:04;45.28;;;26.25;;
21517;SDS011;61765;45.794;24.150;2022-12-07T22:44:13;47.35;;;27.20;;
21517;SDS011;61765;45.794;24.150;2022-12-07T22:52:20;50.63;;;30.08;;
21517;SDS011;61765;45.794;24.150;2022-12-07T23:00:28;59.45;;;34.35;;
21517;SDS011;61765;45.794;24.150;2022-12-07T23:08:34;65.65;;;32.45;;
21517;SDS011;61765;45.794;24.150;2022-12-07T23:16:42;55.22;;;32.70;;
21517;SDS011;61765;45.794;24.150;2022-12-07T23:24:48;56.03;;;30.83;;
21517;SDS011;61765;45.794;24.150;2022-12-07T23:32:56;52.53;;;29.30;;
21517;SDS011;61765;45.794;24.150;2022-12-07T23:41:03;60.97;;;33.53;;
21517;SDS011;61765;45.794;24.150;2022-12-07T23:49:12;57.90;;;34.10;;
21517;SDS011;61765;45.794;24.150;2022-12-07T23:57:19;63.55;;;35.47;;
